createdAt,value
2023-03-27T00:02:20.459Z,15.80
2023-03-27T00:04:54.836Z,15.80
2023-03-27T00:07:26.294Z,15.81
2023-03-27T00:09:57.563Z,15.80
2023-03-27T00:12:29.310Z,15.80
2023-03-27T00:15:00.887Z,15.81
2023-03-27T00:17:32.713Z,15.82
2023-03-27T00:20:05.726Z,15.83
2023-03-27T00:22:37.346Z,15.83
2023-03-27T00:25:10.163Z,15.83
2023-03-27T00:27:42.036Z,15.83
2023-03-27T00:30:15.723Z,15.83
2023-03-27T00:32:46.953Z,15.83
2023-03-27T00:35:19.416Z,15.82
2023-03-27T00:37:50.852Z,15.81
2023-03-27T00:40:23.134Z,15.79
2023-03-27T00:42:59.542Z,15.78
2023-03-27T00:45:33.820Z,15.74
2023-03-27T00:48:10.238Z,15.72
2023-03-27T00:50:44.168Z,15.69
2023-03-27T00:53:21.205Z,15.67
2023-03-27T00:55:55.215Z,15.66
2023-03-27T00:58:31.883Z,15.64
2023-03-27T01:01:03.616Z,15.63
2023-03-27T01:03:35.379Z,15.62
2023-03-27T01:06:07.623Z,15.62
2023-03-27T01:08:40.167Z,15.61
2023-03-27T01:11:19.248Z,15.61
2023-03-27T01:14:11.534Z,15.61
2023-03-27T01:16:51.979Z,15.61
2023-03-27T01:19:52.075Z,15.59
2023-03-27T01:22:52.705Z,15.58
2023-03-27T01:25:40.715Z,15.56
2023-03-27T01:28:37.116Z,15.55
2023-03-27T01:31:23.163Z,15.55
2023-03-27T01:34:21.348Z,15.51
2023-03-27T01:37:18.778Z,15.45
2023-03-27T01:39:54.859Z,15.41
2023-03-27T01:42:33.897Z,15.38
2023-03-27T01:45:12.064Z,15.39
2023-03-27T01:47:53.600Z,15.41
2023-03-27T01:50:32.068Z,15.42
2023-03-27T01:53:08.520Z,15.43
2023-03-27T01:55:46.197Z,15.43
2023-03-27T01:58:20.594Z,15.43
2023-03-27T02:00:58.216Z,15.43
2023-03-27T02:03:34.965Z,15.43
2023-03-27T02:06:12.266Z,15.42
2023-03-27T02:08:48.365Z,15.42
2023-03-27T02:11:22.453Z,15.43
2023-03-27T02:13:56.897Z,15.45
2023-03-27T02:16:33.965Z,15.45
2023-03-27T02:19:10.245Z,15.44
2023-03-27T02:21:41.737Z,15.43
2023-03-27T02:24:15.978Z,15.41
2023-03-27T02:26:52.021Z,15.40
2023-03-27T02:29:51.788Z,15.40
2023-03-27T02:32:33.197Z,15.40
2023-03-27T02:35:23.710Z,15.40
2023-03-27T02:38:08.461Z,15.39
2023-03-27T02:40:57.176Z,15.38
2023-03-27T02:44:02.365Z,15.42
2023-03-27T02:46:53.451Z,15.45
2023-03-27T02:49:30.003Z,15.48
2023-03-27T02:52:07.437Z,15.52
2023-03-27T02:54:43.678Z,15.55
2023-03-27T02:57:22.654Z,15.59
2023-03-27T03:00:30.780Z,15.62
2023-03-27T03:03:36.345Z,15.61
2023-03-27T03:06:30.147Z,15.61
2023-03-27T03:09:05.565Z,15.61
2023-03-27T03:11:39.792Z,15.61
2023-03-27T03:14:11.039Z,15.62
2023-03-27T03:16:42.310Z,15.62
2023-03-27T03:19:14.299Z,15.62
2023-03-27T03:21:46.606Z,15.62
2023-03-27T03:24:19.313Z,15.61
2023-03-27T03:26:51.268Z,15.60
2023-03-27T03:29:22.519Z,15.61
2023-03-27T03:32:05.695Z,15.63
2023-03-27T03:34:37.488Z,15.66
2023-03-27T03:37:10.670Z,15.69
2023-03-27T03:39:42.235Z,15.72
2023-03-27T03:42:22.604Z,15.75
2023-03-27T03:44:56.179Z,15.78
2023-03-27T03:47:27.351Z,15.80
2023-03-27T03:49:58.772Z,15.81
2023-03-27T03:52:30.455Z,15.80
2023-03-27T03:55:01.671Z,15.81
2023-03-27T03:57:33.196Z,15.80
2023-03-27T04:00:12.669Z,15.78
2023-03-27T04:02:54.569Z,15.76
2023-03-27T04:05:27.405Z,15.77
2023-03-27T04:08:01.065Z,15.76
2023-03-27T04:10:35.553Z,15.71
2023-03-27T04:13:09.145Z,15.68
2023-03-27T04:15:43.394Z,15.66
2023-03-27T04:18:15.536Z,15.64
2023-03-27T04:20:49.735Z,15.61
2023-03-27T04:23:22.136Z,15.56
2023-03-27T04:25:53.494Z,15.49
2023-03-27T04:28:30.477Z,15.42
2023-03-27T04:31:11.624Z,15.38
2023-03-27T04:34:15.103Z,15.33
2023-03-27T04:37:18.528Z,15.25
2023-03-27T04:40:06.981Z,15.24
2023-03-27T04:42:42.759Z,15.29
2023-03-27T04:45:17.923Z,15.35
2023-03-27T04:47:51.234Z,15.39
2023-03-27T04:50:23.637Z,15.37
2023-03-27T04:53:00.216Z,15.35
2023-03-27T04:55:38.158Z,15.36
2023-03-27T04:58:10.280Z,15.39
2023-03-27T05:00:42.509Z,15.44
2023-03-27T05:03:40.414Z,15.43
2023-03-27T05:06:17.010Z,15.42
2023-03-27T05:08:48.352Z,15.46
2023-03-27T05:11:28.944Z,15.51
2023-03-27T05:13:59.959Z,15.53
2023-03-27T05:16:32.171Z,15.67
2023-03-27T05:19:05.399Z,15.78
2023-03-27T05:21:46.852Z,15.87
2023-03-27T05:24:18.485Z,16.11
2023-03-27T05:26:50.249Z,16.15
2023-03-27T05:29:21.441Z,16.03
2023-03-27T05:32:01.415Z,15.87
2023-03-27T05:34:54.660Z,15.88
2023-03-27T05:37:27.600Z,15.92
2023-03-27T05:40:25.138Z,16.02
2023-03-27T05:42:57.821Z,16.10
2023-03-27T05:45:32.633Z,16.10
2023-03-27T05:48:05.710Z,16.08
2023-03-27T05:50:40.525Z,16.13
2023-03-27T05:53:19.071Z,16.24
2023-03-27T05:56:03.638Z,16.28
2023-03-27T05:58:41.706Z,16.26
2023-03-27T06:01:14.081Z,16.16
2023-03-27T06:03:45.627Z,16.07
2023-03-27T06:06:26.536Z,16.00
2023-03-27T06:09:00.422Z,15.99
2023-03-27T06:11:32.821Z,16.00
2023-03-27T06:14:04.312Z,16.04
2023-03-27T06:16:58.720Z,16.06
2023-03-27T06:19:42.868Z,16.07
2023-03-27T06:22:14.172Z,16.10
2023-03-27T06:24:45.854Z,16.08
2023-03-27T06:27:20.301Z,16.07
2023-03-27T06:29:52.048Z,16.05
2023-03-27T06:32:24.131Z,16.01
2023-03-27T06:34:56.922Z,16.00
2023-03-27T06:37:51.262Z,16.07
2023-03-27T06:40:25.218Z,16.21
2023-03-27T06:42:59.612Z,16.32
2023-03-27T06:45:43.579Z,16.45
2023-03-27T06:48:33.275Z,16.55
2023-03-27T06:51:08.150Z,16.59
2023-03-27T06:53:39.309Z,16.67
2023-03-27T06:56:12.037Z,16.79
2023-03-27T06:59:01.857Z,16.88
2023-03-27T07:01:33.021Z,16.92
2023-03-27T07:04:24.621Z,17.00
2023-03-27T07:07:03.582Z,17.13
2023-03-27T07:09:39.950Z,17.17
2023-03-27T07:12:12.897Z,17.20
2023-03-27T07:14:45.085Z,17.21
2023-03-27T07:17:16.612Z,17.22
2023-03-27T07:19:55.980Z,17.23
2023-03-27T07:22:31.536Z,17.23
2023-03-27T07:25:09.391Z,17.22
2023-03-27T07:27:45.551Z,17.21
2023-03-27T07:30:17.971Z,17.24
2023-03-27T07:32:49.977Z,17.25
2023-03-27T07:35:21.825Z,17.27
2023-03-27T07:38:22.410Z,17.36
2023-03-27T07:41:21.091Z,17.43
2023-03-27T07:43:58.385Z,17.47
2023-03-27T07:46:30.516Z,17.48
2023-03-27T07:49:03.316Z,17.48
2023-03-27T07:51:34.551Z,17.47
2023-03-27T07:54:06.726Z,17.47
2023-03-27T07:56:42.405Z,17.49
2023-03-27T07:59:32.706Z,17.58
2023-03-27T08:02:13.874Z,17.69
2023-03-27T08:04:44.945Z,17.75
2023-03-27T08:07:16.468Z,17.82
2023-03-27T08:09:48.460Z,17.94
2023-03-27T08:12:19.968Z,18.05
2023-03-27T08:14:59.888Z,18.20
2023-03-27T08:17:34.014Z,18.34
2023-03-27T08:20:09.295Z,18.49
2023-03-27T08:22:47.282Z,18.63
2023-03-27T08:25:38.484Z,18.74
2023-03-27T08:28:11.747Z,18.85
2023-03-27T08:30:45.326Z,18.97
2023-03-27T08:33:17.196Z,19.08
2023-03-27T08:35:52.198Z,19.18
2023-03-27T08:38:26.900Z,19.28
2023-03-27T08:41:32.032Z,19.34
2023-03-27T08:44:19.864Z,19.38
2023-03-27T08:46:56.166Z,19.36
2023-03-27T08:49:34.217Z,19.29
2023-03-27T08:52:18.167Z,19.23
2023-03-27T08:54:58.611Z,19.25
2023-03-27T08:57:38.194Z,19.27
2023-03-27T09:00:23.795Z,19.21
2023-03-27T09:03:03.987Z,19.17
2023-03-27T09:05:43.808Z,19.11
2023-03-27T09:08:22.532Z,19.18
2023-03-27T09:10:59.997Z,19.27
2023-03-27T09:13:48.309Z,19.24
2023-03-27T09:16:26.815Z,19.26
2023-03-27T09:19:11.515Z,19.36
2023-03-27T09:21:48.056Z,19.45
2023-03-27T09:24:30.896Z,19.44
2023-03-27T09:27:25.183Z,19.64
2023-03-27T09:30:24.073Z,19.97
2023-03-27T09:33:07.281Z,20.82
2023-03-27T09:35:39.268Z,22.04
2023-03-27T09:38:24.943Z,23.34
2023-03-27T09:40:59.324Z,24.74
2023-03-27T09:43:37.752Z,25.78
2023-03-27T09:46:11.460Z,26.48
2023-03-27T09:48:50.453Z,26.85
2023-03-27T09:51:41.519Z,27.01
2023-03-27T09:54:23.903Z,27.04
2023-03-27T09:57:00.087Z,26.89
2023-03-27T09:59:33.992Z,26.67
2023-03-27T10:02:28.159Z,26.44
2023-03-27T10:05:12.244Z,26.23
2023-03-27T10:07:45.680Z,26.09
2023-03-27T10:10:42.486Z,25.95
2023-03-27T10:13:27.712Z,25.84
2023-03-27T10:16:05.177Z,25.75
2023-03-27T10:18:48.032Z,25.62
2023-03-27T10:21:30.862Z,25.53
2023-03-27T10:24:19.735Z,25.44
2023-03-27T10:27:25.821Z,25.33
2023-03-27T10:30:34.716Z,25.25
2023-03-27T10:33:37.268Z,25.21
2023-03-27T10:36:37.913Z,25.20
2023-03-27T10:39:15.512Z,25.18
2023-03-27T10:42:11.466Z,25.14
2023-03-27T10:44:48.425Z,25.11
2023-03-27T10:47:23.840Z,25.11
2023-03-27T10:50:04.088Z,25.06
2023-03-27T10:52:58.371Z,25.02
2023-03-27T10:55:45.011Z,25.02
2023-03-27T10:58:40.461Z,25.04
2023-03-27T11:01:19.072Z,25.12
2023-03-27T11:03:57.767Z,25.16
2023-03-27T11:06:33.459Z,25.19
2023-03-27T11:09:16.268Z,25.21
2023-03-27T11:12:03.358Z,25.19
2023-03-27T11:14:45.488Z,25.13
2023-03-27T11:17:22.149Z,25.12
2023-03-27T11:20:24.951Z,25.11
2023-03-27T11:23:21.552Z,25.13
2023-03-27T11:26:15.779Z,25.17
2023-03-27T11:28:55.699Z,25.19
2023-03-27T11:31:39.591Z,25.24
2023-03-27T11:34:28.434Z,25.29
2023-03-27T11:37:06.276Z,25.38
2023-03-27T11:39:48.339Z,25.42
2023-03-27T11:42:24.069Z,25.46
2023-03-27T11:44:57.113Z,25.50
2023-03-27T11:47:58.126Z,25.54
2023-03-27T11:50:41.383Z,25.59
2023-03-27T11:53:38.229Z,25.63
2023-03-27T11:56:26.162Z,25.64
2023-03-27T11:59:18.488Z,25.66
2023-03-27T12:02:05.524Z,25.71
2023-03-27T12:04:51.878Z,25.71
2023-03-27T12:07:48.276Z,25.67
2023-03-27T12:10:30.573Z,25.71
2023-03-27T12:13:55.035Z,25.74
2023-03-27T12:16:55.732Z,25.77
2023-03-27T12:19:44.138Z,25.77
2023-03-27T12:22:38.102Z,25.78
2023-03-27T12:25:34.210Z,25.79
2023-03-27T12:29:02.618Z,25.80
2023-03-27T12:32:06.403Z,25.83
2023-03-27T12:34:53.049Z,25.84
2023-03-27T12:37:30.070Z,25.82
2023-03-27T12:40:10.505Z,25.81
2023-03-27T12:42:53.468Z,25.80
2023-03-27T12:45:28.759Z,25.77
2023-03-27T12:48:21.761Z,25.76
2023-03-27T12:51:01.425Z,25.77
2023-03-27T12:53:51.146Z,25.76
2023-03-27T12:56:32.454Z,25.71
2023-03-27T12:59:13.975Z,25.67
2023-03-27T13:02:02.443Z,25.63
2023-03-27T13:05:01.015Z,25.62
2023-03-27T13:07:38.096Z,25.61
2023-03-27T13:10:30.863Z,25.61
2023-03-27T13:13:36.906Z,25.61
2023-03-27T13:16:35.118Z,25.58
2023-03-27T13:19:30.708Z,25.52
2023-03-27T13:22:26.094Z,25.45
2023-03-27T13:25:11.145Z,25.38
2023-03-27T13:27:55.343Z,25.33
2023-03-27T13:30:48.064Z,25.28
2023-03-27T13:33:47.656Z,25.23
2023-03-27T13:36:33.618Z,25.20
2023-03-27T13:39:24.113Z,25.19
2023-03-27T13:42:19.091Z,25.19
2023-03-27T13:45:08.258Z,25.18
2023-03-27T13:48:10.626Z,25.20
2023-03-27T13:50:59.981Z,25.22
2023-03-27T13:53:56.645Z,25.20
2023-03-27T13:56:49.476Z,25.15
2023-03-27T13:59:54.657Z,25.09
2023-03-27T14:02:59.522Z,25.03
2023-03-27T14:05:59.931Z,24.96
2023-03-27T14:08:41.981Z,24.89
2023-03-27T14:11:51.601Z,24.83
2023-03-27T14:14:54.362Z,24.76
2023-03-27T14:17:38.210Z,24.72
2023-03-27T14:20:18.781Z,24.70
2023-03-27T14:22:56.918Z,24.70
2023-03-27T14:25:35.238Z,24.66
2023-03-27T14:28:35.045Z,24.61
2023-03-27T14:31:11.337Z,24.55
2023-03-27T14:34:15.953Z,24.51
2023-03-27T14:36:51.885Z,24.48
2023-03-27T14:39:34.598Z,24.43
2023-03-27T14:42:18.224Z,24.36
2023-03-27T14:44:53.906Z,24.33
2023-03-27T14:47:27.337Z,24.31
2023-03-27T14:50:02.569Z,24.29
2023-03-27T14:52:40.431Z,24.26
2023-03-27T14:55:26.032Z,24.24
2023-03-27T14:58:18.472Z,24.21
2023-03-27T15:00:56.512Z,24.21
2023-03-27T15:03:35.326Z,24.19
2023-03-27T15:06:15.247Z,24.14
2023-03-27T15:08:58.824Z,24.09
2023-03-27T15:11:50.870Z,24.05
2023-03-27T15:14:32.372Z,24.00
2023-03-27T15:17:07.912Z,23.97
2023-03-27T15:19:45.816Z,23.92
2023-03-27T15:22:24.543Z,23.88
2023-03-27T15:25:01.696Z,23.83
2023-03-27T15:27:36.869Z,23.81
2023-03-27T15:30:21.237Z,23.78
2023-03-27T15:32:55.017Z,23.73
2023-03-27T15:35:33.443Z,23.69
2023-03-27T15:38:06.617Z,23.64
2023-03-27T15:40:42.603Z,23.62
2023-03-27T15:43:25.220Z,23.57
2023-03-27T15:46:15.921Z,23.53
2023-03-27T15:48:51.346Z,23.49
2023-03-27T15:51:32.580Z,23.47
2023-03-27T15:54:27.562Z,23.45
2023-03-27T15:57:09.387Z,23.43
2023-03-27T15:59:51.959Z,23.41
2023-03-27T16:02:26.702Z,23.38
2023-03-27T16:05:00.181Z,23.35
2023-03-27T16:07:43.830Z,23.33
2023-03-27T16:10:15.865Z,23.30
2023-03-27T16:12:57.154Z,23.27
2023-03-27T16:15:35.953Z,23.25
2023-03-27T16:18:19.008Z,23.22
2023-03-27T16:20:50.441Z,23.19
2023-03-27T16:23:21.961Z,23.17
2023-03-27T16:25:53.238Z,23.15
2023-03-27T16:28:29.700Z,23.12
2023-03-27T16:31:10.401Z,23.09
2023-03-27T16:33:43.316Z,23.03
2023-03-27T16:36:17.373Z,23.01
2023-03-27T16:38:49.256Z,22.97
2023-03-27T16:41:21.079Z,22.92
2023-03-27T16:43:52.406Z,22.88
2023-03-27T16:46:25.659Z,22.84
2023-03-27T16:48:57.676Z,22.78
2023-03-27T16:51:30.002Z,22.71
2023-03-27T16:54:01.530Z,22.66
2023-03-27T16:56:33.254Z,22.61
2023-03-27T16:59:04.934Z,22.56
2023-03-27T17:01:36.286Z,22.49
2023-03-27T17:04:07.579Z,22.44
2023-03-27T17:06:40.302Z,22.40
2023-03-27T17:09:12.713Z,22.36
2023-03-27T17:11:43.965Z,22.32
2023-03-27T17:14:15.795Z,22.27
2023-03-27T17:16:48.848Z,22.21
2023-03-27T17:19:20.625Z,22.18
2023-03-27T17:21:52.189Z,22.13
2023-03-27T17:24:25.280Z,22.03
2023-03-27T17:26:56.819Z,21.92
2023-03-27T17:29:28.665Z,21.80
2023-03-27T17:32:01.168Z,21.68
2023-03-27T17:34:32.722Z,21.58
2023-03-27T17:37:04.253Z,21.47
2023-03-27T17:39:35.399Z,21.37
2023-03-27T17:42:07.672Z,21.28
2023-03-27T17:44:39.726Z,21.20
2023-03-27T17:47:11.100Z,21.11
2023-03-27T17:49:43.443Z,21.00
2023-03-27T17:52:15.319Z,20.90
2023-03-27T17:54:46.724Z,20.82
2023-03-27T17:57:18.146Z,20.75
2023-03-27T17:59:49.873Z,20.71
2023-03-27T18:02:23.097Z,20.67
2023-03-27T18:04:54.364Z,20.63
2023-03-27T18:07:26.221Z,20.58
2023-03-27T18:09:57.442Z,20.54
2023-03-27T18:12:28.777Z,20.49
2023-03-27T18:14:59.989Z,20.44
2023-03-27T18:17:31.326Z,20.42
2023-03-27T18:20:02.737Z,20.40
2023-03-27T18:22:33.664Z,20.38
2023-03-27T18:25:06.390Z,20.36
2023-03-27T18:27:40.154Z,20.32
2023-03-27T18:30:15.390Z,20.27
2023-03-27T18:32:48.227Z,20.23
2023-03-27T18:35:21.263Z,20.20
2023-03-27T18:37:53.108Z,20.17
2023-03-27T18:40:24.368Z,20.15
2023-03-27T18:42:55.928Z,20.15
2023-03-27T18:45:28.098Z,20.14
2023-03-27T18:47:59.572Z,20.11
2023-03-27T18:50:31.017Z,20.08
2023-03-27T18:53:02.829Z,20.04
2023-03-27T18:55:34.366Z,20.01
2023-03-27T18:58:06.624Z,19.99
2023-03-27T19:00:38.675Z,19.98
2023-03-27T19:03:14.573Z,19.96
2023-03-27T19:05:46.422Z,19.96
2023-03-27T19:08:18.597Z,19.96
2023-03-27T19:10:49.894Z,19.95
2023-03-27T19:13:47.487Z,19.90
2023-03-27T19:16:42.320Z,19.87
2023-03-27T19:19:46.616Z,19.85
2023-03-27T19:22:25.576Z,19.82
2023-03-27T19:25:16.369Z,19.77
2023-03-27T19:27:47.588Z,19.71
2023-03-27T19:30:19.686Z,19.66
2023-03-27T19:32:51.776Z,19.61
2023-03-27T19:35:22.754Z,19.57
2023-03-27T19:37:54.433Z,19.53
2023-03-27T19:40:27.040Z,19.49
2023-03-27T19:42:58.372Z,19.44
2023-03-27T19:45:29.991Z,19.42
2023-03-27T19:48:01.107Z,19.37
2023-03-27T19:50:32.892Z,19.35
2023-03-27T19:53:12.982Z,19.34
2023-03-27T19:55:44.753Z,19.32
2023-03-27T19:58:15.922Z,19.31
2023-03-27T20:00:50.028Z,19.29
2023-03-27T20:03:24.200Z,19.24
2023-03-27T20:06:06.954Z,19.20
2023-03-27T20:08:39.588Z,19.17
2023-03-27T20:11:11.017Z,19.15
2023-03-27T20:13:55.458Z,19.13
2023-03-27T20:16:29.508Z,19.11
2023-03-27T20:19:07.482Z,19.08
2023-03-27T20:21:40.788Z,19.04
2023-03-27T20:24:18.197Z,19.03
2023-03-27T20:26:57.250Z,18.99
2023-03-27T20:29:29.787Z,18.94
2023-03-27T20:32:00.995Z,18.88
2023-03-27T20:34:32.365Z,18.84
2023-03-27T20:37:04.045Z,18.81
2023-03-27T20:39:47.156Z,18.79
2023-03-27T20:42:23.252Z,18.76
2023-03-27T20:44:58.555Z,18.74
2023-03-27T20:47:39.233Z,18.72
2023-03-27T20:50:11.895Z,18.69
2023-03-27T20:52:45.223Z,18.67
2023-03-27T20:55:32.489Z,18.64
2023-03-27T20:58:07.513Z,18.60
2023-03-27T21:00:38.702Z,18.58
2023-03-27T21:03:10.274Z,18.55
2023-03-27T21:05:41.658Z,18.51
2023-03-27T21:08:12.633Z,18.47
2023-03-27T21:10:44.140Z,18.44
2023-03-27T21:13:15.526Z,18.43
2023-03-27T21:15:46.996Z,18.40
2023-03-27T21:18:20.376Z,18.35
2023-03-27T21:20:51.674Z,18.31
2023-03-27T21:23:23.501Z,18.29
2023-03-27T21:25:55.389Z,18.25
2023-03-27T21:28:26.595Z,18.22
2023-03-27T21:30:57.807Z,18.19
2023-03-27T21:33:29.324Z,18.15
2023-03-27T21:36:01.955Z,18.13
2023-03-27T21:38:33.308Z,18.09
2023-03-27T21:41:06.356Z,18.06
2023-03-27T21:43:37.744Z,18.03
2023-03-27T21:46:09.714Z,18.01
2023-03-27T21:48:42.988Z,17.98
2023-03-27T21:51:14.249Z,17.91
2023-03-27T21:53:45.709Z,17.87
2023-03-27T21:56:17.192Z,17.83
2023-03-27T21:58:48.522Z,17.78
2023-03-27T22:01:20.364Z,17.74
2023-03-27T22:03:51.798Z,17.70
2023-03-27T22:06:23.231Z,17.65
2023-03-27T22:08:54.394Z,17.61
2023-03-27T22:11:25.742Z,17.55
2023-03-27T22:13:57.073Z,17.50
2023-03-27T22:16:28.548Z,17.45
2023-03-27T22:18:59.735Z,17.41
2023-03-27T22:21:32.336Z,17.38
2023-03-27T22:24:03.769Z,17.37
2023-03-27T22:26:38.040Z,17.33
2023-03-27T22:29:10.091Z,17.28
2023-03-27T22:31:41.667Z,17.24
2023-03-27T22:34:13.067Z,17.21
2023-03-27T22:36:44.925Z,17.19
2023-03-27T22:39:16.450Z,17.18
2023-03-27T22:41:47.364Z,17.16
2023-03-27T22:44:18.623Z,17.12
2023-03-27T22:46:51.530Z,17.07
2023-03-27T22:49:22.929Z,17.02
2023-03-27T22:51:54.139Z,16.97
2023-03-27T22:54:25.627Z,16.92
2023-03-27T22:56:58.444Z,16.87
2023-03-27T22:59:29.690Z,16.83
2023-03-27T23:02:01.154Z,16.80
2023-03-27T23:04:32.693Z,16.77
2023-03-27T23:07:04.955Z,16.73
2023-03-27T23:09:36.451Z,16.70
2023-03-27T23:12:08.430Z,16.67
2023-03-27T23:14:39.469Z,16.63
2023-03-27T23:17:10.801Z,16.59
2023-03-27T23:19:41.734Z,16.56
2023-03-27T23:22:13.173Z,16.54
2023-03-27T23:24:45.170Z,16.52
2023-03-27T23:27:16.801Z,16.50
2023-03-27T23:29:48.236Z,16.48
2023-03-27T23:32:19.422Z,16.46
2023-03-27T23:34:51.243Z,16.44
2023-03-27T23:37:23.005Z,16.40
2023-03-27T23:39:54.383Z,16.37
2023-03-27T23:42:25.736Z,16.34
2023-03-27T23:44:56.984Z,16.32
2023-03-27T23:47:28.089Z,16.30
2023-03-27T23:49:59.015Z,16.29
2023-03-27T23:52:29.844Z,16.27
2023-03-27T23:55:01.140Z,16.24
2023-03-27T23:57:32.519Z,16.19
